sensor_id;sensor_type;location;lat;lon;timestamp;temperature;humidity
55036;DHT22;40936;53.008;6.556;2022-07-05T00:01:05;13.70;99.90
55036;DHT22;40936;53.008;6.556;2022-07-05T00:03:32;13.70;99.90
55036;DHT22;40936;53.008;6.556;2022-07-05T00:05:57;13.70;99.90
55036;DHT22;40936;53.008;6.556;2022-07-05T00:08:23;13.70;99.90
55036;DHT22;40936;53.008;6.556;2022-07-05T00:10:49;13.70;99.90
55036;DHT22;40936;53.008;6.556;2022-07-05T00:13:15;13.60;99.90
55036;DHT22;40936;53.008;6.556;2022-07-05T00:15:41;13.50;99.90
55036;DHT22;40936;53.008;6.556;2022-07-05T00:18:07;13.50;98.10
55036;DHT22;40936;53.008;6.556;2022-07-05T00:20:33;13.50;32.50
55036;DHT22;40936;53.008;6.556;2022-07-05T00:22:58;13.50;10.20
55036;DHT22;40936;53.008;6.556;2022-07-05T00:25:24;13.40;99.90
55036;DHT22;40936;53.008;6.556;2022-07-05T00:27:50;13.50;99.90
55036;DHT22;40936;53.008;6.556;2022-07-05T00:30:15;14.70;99.90
55036;DHT22;40936;53.008;6.556;2022-07-05T00:32:41;13.40;99.90
55036;DHT22;40936;53.008;6.556;2022-07-05T00:35:08;13.40;99.90
55036;DHT22;40936;53.008;6.556;2022-07-05T00:37:34;13.30;49.90
55036;DHT22;40936;53.008;6.556;2022-07-05T00:40:00;13.30;1.00
55036;DHT22;40936;53.008;6.556;2022-07-05T00:42:26;14.10;1.00
55036;DHT22;40936;53.008;6.556;2022-07-05T00:44:52;13.30;1.00
55036;DHT22;40936;53.008;6.556;2022-07-05T00:47:18;13.20;1.00
55036;DHT22;40936;53.008;6.556;2022-07-05T00:49:44;13.20;1.00
55036;DHT22;40936;53.008;6.556;2022-07-05T00:52:11;13.40;1.00
55036;DHT22;40936;53.008;6.556;2022-07-05T00:54:37;13.20;1.00
55036;DHT22;40936;53.008;6.556;2022-07-05T00:57:04;13.20;1.00
55036;DHT22;40936;53.008;6.556;2022-07-05T00:59:30;13.10;1.00
55036;DHT22;40936;53.008;6.556;2022-07-05T01:01:57;13.10;1.00
55036;DHT22;40936;53.008;6.556;2022-07-05T01:04:23;13.10;1.00
55036;DHT22;40936;53.008;6.556;2022-07-05T01:06:50;13.10;1.00
55036;DHT22;40936;53.008;6.556;2022-07-05T01:09:18;13.00;1.00
55036;DHT22;40936;53.008;6.556;2022-07-05T01:11:45;13.00;1.00
55036;DHT22;40936;53.008;6.556;2022-07-05T01:14:17;13.00;1.00
55036;DHT22;40936;53.008;6.556;2022-07-05T01:16:43;13.00;1.00
55036;DHT22;40936;53.008;6.556;2022-07-05T01:19:10;13.00;1.00
55036;DHT22;40936;53.008;6.556;2022-07-05T01:21:40;12.90;1.00
55036;DHT22;40936;53.008;6.556;2022-07-05T01:24:10;12.90;1.00
55036;DHT22;40936;53.008;6.556;2022-07-05T01:26:37;12.90;1.00
55036;DHT22;40936;53.008;6.556;2022-07-05T01:29:03;12.90;1.00
55036;DHT22;40936;53.008;6.556;2022-07-05T01:31:29;12.90;1.00
55036;DHT22;40936;53.008;6.556;2022-07-05T01:33:55;12.90;1.00
55036;DHT22;40936;53.008;6.556;2022-07-05T01:36:22;12.80;1.00
55036;DHT22;40936;53.008;6.556;2022-07-05T01:38:48;12.80;1.00
55036;DHT22;40936;53.008;6.556;2022-07-05T01:41:14;12.80;1.00
55036;DHT22;40936;53.008;6.556;2022-07-05T01:43:40;12.80;1.00
55036;DHT22;40936;53.008;6.556;2022-07-05T01:46:07;12.80;99.90
55036;DHT22;40936;53.008;6.556;2022-07-05T01:48:35;13.00;99.90
55036;DHT22;40936;53.008;6.556;2022-07-05T01:51:10;13.00;99.90
55036;DHT22;40936;53.008;6.556;2022-07-05T01:53:39;13.00;1.00
55036;DHT22;40936;53.008;6.556;2022-07-05T01:56:06;13.10;54.70
55036;DHT22;40936;53.008;6.556;2022-07-05T01:58:32;13.10;38.60
55036;DHT22;40936;53.008;6.556;2022-07-05T02:00:59;13.00;60.10
55036;DHT22;40936;53.008;6.556;2022-07-05T02:03:25;13.00;1.00
55036;DHT22;40936;53.008;6.556;2022-07-05T02:05:51;13.00;1.00
55036;DHT22;40936;53.008;6.556;2022-07-05T02:08:18;12.90;99.90
55036;DHT22;40936;53.008;6.556;2022-07-05T02:10:45;13.00;1.00
55036;DHT22;40936;53.008;6.556;2022-07-05T02:13:11;13.00;14.00
55036;DHT22;40936;53.008;6.556;2022-07-05T02:15:39;13.00;15.60
55036;DHT22;40936;53.008;6.556;2022-07-05T02:18:06;13.00;99.90
55036;DHT22;40936;53.008;6.556;2022-07-05T02:20:32;13.00;99.90
55036;DHT22;40936;53.008;6.556;2022-07-05T02:22:58;13.00;99.90
55036;DHT22;40936;53.008;6.556;2022-07-05T02:25:24;13.40;99.90
55036;DHT22;40936;53.008;6.556;2022-07-05T02:27:52;12.90;44.20
55036;DHT22;40936;53.008;6.556;2022-07-05T02:30:18;12.80;1.00
55036;DHT22;40936;53.008;6.556;2022-07-05T02:32:44;12.70;1.00
55036;DHT22;40936;53.008;6.556;2022-07-05T02:35:11;12.70;99.90
55036;DHT22;40936;53.008;6.556;2022-07-05T02:37:37;12.80;8.70
55036;DHT22;40936;53.008;6.556;2022-07-05T02:40:06;12.90;99.90
55036;DHT22;40936;53.008;6.556;2022-07-05T02:42:33;12.90;99.90
55036;DHT22;40936;53.008;6.556;2022-07-05T02:44:58;12.90;99.90
55036;DHT22;40936;53.008;6.556;2022-07-05T02:47:24;12.80;99.90
55036;DHT22;40936;53.008;6.556;2022-07-05T02:49:50;13.50;99.90
55036;DHT22;40936;53.008;6.556;2022-07-05T02:52:17;12.70;99.90
55036;DHT22;40936;53.008;6.556;2022-07-05T02:54:43;12.80;54.70
55036;DHT22;40936;53.008;6.556;2022-07-05T02:57:08;12.70;1.00
55036;DHT22;40936;53.008;6.556;2022-07-05T02:59:34;12.70;99.90
55036;DHT22;40936;53.008;6.556;2022-07-05T03:02:00;12.70;99.90
55036;DHT22;40936;53.008;6.556;2022-07-05T03:04:25;12.70;99.90
55036;DHT22;40936;53.008;6.556;2022-07-05T03:06:51;12.60;56.50
55036;DHT22;40936;53.008;6.556;2022-07-05T03:09:17;12.80;99.90
55036;DHT22;40936;53.008;6.556;2022-07-05T03:11:42;12.70;99.90
55036;DHT22;40936;53.008;6.556;2022-07-05T03:14:08;12.60;92.30
55036;DHT22;40936;53.008;6.556;2022-07-05T03:16:34;12.60;1.00
55036;DHT22;40936;53.008;6.556;2022-07-05T03:18:59;12.60;1.00
55036;DHT22;40936;53.008;6.556;2022-07-05T03:21:25;12.50;1.00
55036;DHT22;40936;53.008;6.556;2022-07-05T03:23:51;12.50;99.90
55036;DHT22;40936;53.008;6.556;2022-07-05T03:26:16;12.40;99.90
55036;DHT22;40936;53.008;6.556;2022-07-05T03:28:42;12.40;99.90
55036;DHT22;40936;53.008;6.556;2022-07-05T03:31:08;12.40;99.90
55036;DHT22;40936;53.008;6.556;2022-07-05T03:33:33;12.40;99.90
55036;DHT22;40936;53.008;6.556;2022-07-05T03:35:59;12.40;99.90
55036;DHT22;40936;53.008;6.556;2022-07-05T03:38:25;12.50;99.90
55036;DHT22;40936;53.008;6.556;2022-07-05T03:40:50;12.60;1.00
55036;DHT22;40936;53.008;6.556;2022-07-05T03:43:16;12.50;99.90
55036;DHT22;40936;53.008;6.556;2022-07-05T03:45:42;12.50;99.90
55036;DHT22;40936;53.008;6.556;2022-07-05T03:48:07;12.50;99.90
55036;DHT22;40936;53.008;6.556;2022-07-05T03:50:33;12.80;99.90
55036;DHT22;40936;53.008;6.556;2022-07-05T03:52:59;12.40;99.90
55036;DHT22;40936;53.008;6.556;2022-07-05T03:55:24;12.40;99.90
55036;DHT22;40936;53.008;6.556;2022-07-05T03:57:50;12.80;99.90
55036;DHT22;40936;53.008;6.556;2022-07-05T04:00:16;12.40;99.90
55036;DHT22;40936;53.008;6.556;2022-07-05T04:02:42;12.50;99.90
55036;DHT22;40936;53.008;6.556;2022-07-05T04:05:08;12.50;99.90
55036;DHT22;40936;53.008;6.556;2022-07-05T04:07:34;12.50;99.90
55036;DHT22;40936;53.008;6.556;2022-07-05T04:10:00;12.70;99.90
55036;DHT22;40936;53.008;6.556;2022-07-05T04:12:26;12.70;99.90
55036;DHT22;40936;53.008;6.556;2022-07-05T04:14:52;12.80;99.90
55036;DHT22;40936;53.008;6.556;2022-07-05T04:17:17;12.70;99.90
55036;DHT22;40936;53.008;6.556;2022-07-05T04:19:43;12.90;1.00
55036;DHT22;40936;53.008;6.556;2022-07-05T04:22:09;13.10;99.90
55036;DHT22;40936;53.008;6.556;2022-07-05T04:24:35;13.10;99.90
55036;DHT22;40936;53.008;6.556;2022-07-05T04:27:20;13.20;99.90
55036;DHT22;40936;53.008;6.556;2022-07-05T04:29:46;13.20;99.90
55036;DHT22;40936;53.008;6.556;2022-07-05T04:32:12;13.20;99.90
55036;DHT22;40936;53.008;6.556;2022-07-05T04:34:37;13.20;99.90
55036;DHT22;40936;53.008;6.556;2022-07-05T04:37:03;13.20;99.90
55036;DHT22;40936;53.008;6.556;2022-07-05T04:39:29;13.40;99.90
55036;DHT22;40936;53.008;6.556;2022-07-05T04:41:54;13.50;99.90
55036;DHT22;40936;53.008;6.556;2022-07-05T04:44:20;13.40;99.90
55036;DHT22;40936;53.008;6.556;2022-07-05T04:46:45;13.40;99.90
55036;DHT22;40936;53.008;6.556;2022-07-05T04:49:11;13.60;1.00
55036;DHT22;40936;53.008;6.556;2022-07-05T04:51:37;13.60;1.00
55036;DHT22;40936;53.008;6.556;2022-07-05T04:54:02;13.60;99.90
55036;DHT22;40936;53.008;6.556;2022-07-05T04:56:28;13.60;99.90
55036;DHT22;40936;53.008;6.556;2022-07-05T04:58:54;13.60;99.90
55036;DHT22;40936;53.008;6.556;2022-07-05T05:01:19;13.60;99.90
55036;DHT22;40936;53.008;6.556;2022-07-05T05:03:45;13.60;99.90
55036;DHT22;40936;53.008;6.556;2022-07-05T05:06:11;13.70;52.30
55036;DHT22;40936;53.008;6.556;2022-07-05T05:08:39;13.60;1.00
55036;DHT22;40936;53.008;6.556;2022-07-05T05:11:05;13.60;1.00
55036;DHT22;40936;53.008;6.556;2022-07-05T05:13:30;13.70;1.00
55036;DHT22;40936;53.008;6.556;2022-07-05T05:15:56;13.80;1.00
55036;DHT22;40936;53.008;6.556;2022-07-05T05:18:22;13.90;1.00
55036;DHT22;40936;53.008;6.556;2022-07-05T05:20:53;13.90;1.00
55036;DHT22;40936;53.008;6.556;2022-07-05T05:23:20;14.00;99.90
55036;DHT22;40936;53.008;6.556;2022-07-05T05:25:46;14.00;99.90
55036;DHT22;40936;53.008;6.556;2022-07-05T05:28:11;14.00;99.90
55036;DHT22;40936;53.008;6.556;2022-07-05T05:30:37;14.20;99.90
55036;DHT22;40936;53.008;6.556;2022-07-05T05:33:03;14.30;99.90
55036;DHT22;40936;53.008;6.556;2022-07-05T05:35:28;14.50;99.90
55036;DHT22;40936;53.008;6.556;2022-07-05T05:37:55;14.50;35.30
55036;DHT22;40936;53.008;6.556;2022-07-05T05:40:24;14.60;2.60
55036;DHT22;40936;53.008;6.556;2022-07-05T05:42:52;14.60;1.00
55036;DHT22;40936;53.008;6.556;2022-07-05T05:45:18;14.70;1.00
55036;DHT22;40936;53.008;6.556;2022-07-05T05:47:45;14.70;1.00
55036;DHT22;40936;53.008;6.556;2022-07-05T05:50:11;14.70;1.00
55036;DHT22;40936;53.008;6.556;2022-07-05T05:52:36;14.90;1.00
55036;DHT22;40936;53.008;6.556;2022-07-05T05:55:02;14.90;1.00
55036;DHT22;40936;53.008;6.556;2022-07-05T05:57:31;15.10;99.90
55036;DHT22;40936;53.008;6.556;2022-07-05T05:59:57;15.20;99.90
55036;DHT22;40936;53.008;6.556;2022-07-05T06:02:23;15.40;99.90
55036;DHT22;40936;53.008;6.556;2022-07-05T06:04:48;15.60;41.40
55036;DHT22;40936;53.008;6.556;2022-07-05T06:07:14;15.80;1.00
55036;DHT22;40936;53.008;6.556;2022-07-05T06:09:39;16.00;99.90
55036;DHT22;40936;53.008;6.556;2022-07-05T06:12:05;16.00;99.90
55036;DHT22;40936;53.008;6.556;2022-07-05T06:14:31;16.00;99.90
55036;DHT22;40936;53.008;6.556;2022-07-05T06:16:57;15.90;99.90
55036;DHT22;40936;53.008;6.556;2022-07-05T06:19:22;15.90;1.00
55036;DHT22;40936;53.008;6.556;2022-07-05T06:21:48;16.00;99.90
55036;DHT22;40936;53.008;6.556;2022-07-05T06:24:13;16.00;99.90
55036;DHT22;40936;53.008;6.556;2022-07-05T06:26:39;16.10;99.90
55036;DHT22;40936;53.008;6.556;2022-07-05T06:29:05;16.10;99.90
55036;DHT22;40936;53.008;6.556;2022-07-05T06:31:30;16.20;99.90
55036;DHT22;40936;53.008;6.556;2022-07-05T06:33:56;16.30;99.90
55036;DHT22;40936;53.008;6.556;2022-07-05T06:36:25;16.40;99.90
55036;DHT22;40936;53.008;6.556;2022-07-05T06:38:50;16.40;99.90
55036;DHT22;40936;53.008;6.556;2022-07-05T06:41:16;16.60;99.90
55036;DHT22;40936;53.008;6.556;2022-07-05T06:43:41;16.70;99.90
55036;DHT22;40936;53.008;6.556;2022-07-05T06:46:07;16.80;99.90
55036;DHT22;40936;53.008;6.556;2022-07-05T06:48:33;16.90;99.90
55036;DHT22;40936;53.008;6.556;2022-07-05T06:50:59;17.00;99.90
55036;DHT22;40936;53.008;6.556;2022-07-05T06:53:24;17.10;99.90
55036;DHT22;40936;53.008;6.556;2022-07-05T06:55:50;17.20;99.90
55036;DHT22;40936;53.008;6.556;2022-07-05T06:58:16;17.30;99.90
55036;DHT22;40936;53.008;6.556;2022-07-05T07:00:42;17.30;99.90
55036;DHT22;40936;53.008;6.556;2022-07-05T07:03:08;17.40;99.90
55036;DHT22;40936;53.008;6.556;2022-07-05T07:05:34;17.50;99.90
55036;DHT22;40936;53.008;6.556;2022-07-05T07:08:00;17.60;99.90
55036;DHT22;40936;53.008;6.556;2022-07-05T07:10:44;17.70;99.90
55036;DHT22;40936;53.008;6.556;2022-07-05T07:13:10;18.40;99.70
55036;DHT22;40936;53.008;6.556;2022-07-05T07:15:36;19.00;59.10
55036;DHT22;40936;53.008;6.556;2022-07-05T07:18:03;20.20;20.80
55036;DHT22;40936;53.008;6.556;2022-07-05T07:20:29;21.00;1.00
55036;DHT22;40936;53.008;6.556;2022-07-05T07:22:55;22.30;1.00
55036;DHT22;40936;53.008;6.556;2022-07-05T07:25:21;23.80;1.00
55036;DHT22;40936;53.008;6.556;2022-07-05T07:27:53;24.20;99.90
55036;DHT22;40936;53.008;6.556;2022-07-05T07:30:21;24.60;99.90
55036;DHT22;40936;53.008;6.556;2022-07-05T07:32:48;24.10;99.90
55036;DHT22;40936;53.008;6.556;2022-07-05T07:35:14;23.50;99.90
55036;DHT22;40936;53.008;6.556;2022-07-05T07:37:40;22.00;99.90
55036;DHT22;40936;53.008;6.556;2022-07-05T07:40:06;21.60;99.90
55036;DHT22;40936;53.008;6.556;2022-07-05T07:42:32;20.60;99.90
55036;DHT22;40936;53.008;6.556;2022-07-05T07:44:58;21.20;99.90
55036;DHT22;40936;53.008;6.556;2022-07-05T07:47:24;21.90;99.90
55036;DHT22;40936;53.008;6.556;2022-07-05T07:49:50;22.80;99.90
55036;DHT22;40936;53.008;6.556;2022-07-05T07:52:16;23.30;99.90
55036;DHT22;40936;53.008;6.556;2022-07-05T07:54:41;23.30;99.90
55036;DHT22;40936;53.008;6.556;2022-07-05T07:57:07;22.90;99.90
55036;DHT22;40936;53.008;6.556;2022-07-05T07:59:33;22.20;99.90
55036;DHT22;40936;53.008;6.556;2022-07-05T08:01:59;21.60;99.90
55036;DHT22;40936;53.008;6.556;2022-07-05T08:04:25;21.40;99.90
55036;DHT22;40936;53.008;6.556;2022-07-05T08:06:51;21.10;99.90
55036;DHT22;40936;53.008;6.556;2022-07-05T08:09:17;21.10;99.90
55036;DHT22;40936;53.008;6.556;2022-07-05T08:11:43;21.30;99.90
55036;DHT22;40936;53.008;6.556;2022-07-05T08:14:09;21.40;99.90
55036;DHT22;40936;53.008;6.556;2022-07-05T08:16:35;21.90;99.90
55036;DHT22;40936;53.008;6.556;2022-07-05T08:19:01;23.10;99.90
55036;DHT22;40936;53.008;6.556;2022-07-05T08:21:45;24.60;99.90
55036;DHT22;40936;53.008;6.556;2022-07-05T08:24:14;26.30;99.90
55036;DHT22;40936;53.008;6.556;2022-07-05T08:26:40;27.50;99.90
55036;DHT22;40936;53.008;6.556;2022-07-05T08:29:09;28.20;99.90
55036;DHT22;40936;53.008;6.556;2022-07-05T08:31:39;28.50;99.90
55036;DHT22;40936;53.008;6.556;2022-07-05T08:34:05;29.10;99.90
55036;DHT22;40936;53.008;6.556;2022-07-05T08:36:31;29.30;99.90
55036;DHT22;40936;53.008;6.556;2022-07-05T08:39:00;28.50;99.90
55036;DHT22;40936;53.008;6.556;2022-07-05T08:41:25;29.10;99.90
55036;DHT22;40936;53.008;6.556;2022-07-05T08:43:51;28.40;99.90
55036;DHT22;40936;53.008;6.556;2022-07-05T08:46:18;28.80;99.90
55036;DHT22;40936;53.008;6.556;2022-07-05T08:48:51;28.60;99.90
55036;DHT22;40936;53.008;6.556;2022-07-05T08:51:19;29.20;99.90
55036;DHT22;40936;53.008;6.556;2022-07-05T08:53:49;27.90;99.90
55036;DHT22;40936;53.008;6.556;2022-07-05T08:56:16;27.60;99.90
55036;DHT22;40936;53.008;6.556;2022-07-05T08:58:42;27.60;99.90
55036;DHT22;40936;53.008;6.556;2022-07-05T09:01:10;27.40;99.90
55036;DHT22;40936;53.008;6.556;2022-07-05T09:03:41;26.90;99.90
55036;DHT22;40936;53.008;6.556;2022-07-05T09:06:09;27.00;99.90
55036;DHT22;40936;53.008;6.556;2022-07-05T09:08:37;27.90;99.90
55036;DHT22;40936;53.008;6.556;2022-07-05T09:11:13;28.80;99.90
55036;DHT22;40936;53.008;6.556;2022-07-05T09:13:43;28.50;99.90
55036;DHT22;40936;53.008;6.556;2022-07-05T09:16:09;27.80;99.90
55036;DHT22;40936;53.008;6.556;2022-07-05T09:18:41;26.80;99.90
55036;DHT22;40936;53.008;6.556;2022-07-05T09:23:40;24.60;99.90
55036;DHT22;40936;53.008;6.556;2022-07-05T09:26:06;23.90;99.90
55036;DHT22;40936;53.008;6.556;2022-07-05T09:28:32;23.60;99.90
55036;DHT22;40936;53.008;6.556;2022-07-05T09:30:58;23.80;99.90
55036;DHT22;40936;53.008;6.556;2022-07-05T09:33:24;24.40;99.90
55036;DHT22;40936;53.008;6.556;2022-07-05T09:35:55;24.30;99.90
55036;DHT22;40936;53.008;6.556;2022-07-05T09:38:23;23.90;99.90
55036;DHT22;40936;53.008;6.556;2022-07-05T09:40:57;23.50;99.90
55036;DHT22;40936;53.008;6.556;2022-07-05T09:43:25;23.10;99.90
55036;DHT22;40936;53.008;6.556;2022-07-05T09:46:04;22.80;99.90
55036;DHT22;40936;53.008;6.556;2022-07-05T09:48:31;23.40;99.90
55036;DHT22;40936;53.008;6.556;2022-07-05T09:51:11;24.60;99.90
55036;DHT22;40936;53.008;6.556;2022-07-05T09:53:51;24.60;99.90
55036;DHT22;40936;53.008;6.556;2022-07-05T09:56:17;23.60;99.90
55036;DHT22;40936;53.008;6.556;2022-07-05T09:58:44;23.40;99.90
55036;DHT22;40936;53.008;6.556;2022-07-05T10:01:29;23.10;99.90
55036;DHT22;40936;53.008;6.556;2022-07-05T10:06:24;22.60;99.90
55036;DHT22;40936;53.008;6.556;2022-07-05T10:08:50;22.70;99.90
55036;DHT22;40936;53.008;6.556;2022-07-05T10:11:18;22.50;99.90
55036;DHT22;40936;53.008;6.556;2022-07-05T10:13:50;22.80;99.90
55036;DHT22;40936;53.008;6.556;2022-07-05T10:16:17;22.50;99.90
55036;DHT22;40936;53.008;6.556;2022-07-05T10:18:47;22.50;99.90
55036;DHT22;40936;53.008;6.556;2022-07-05T10:21:17;22.40;99.90
55036;DHT22;40936;53.008;6.556;2022-07-05T10:23:50;22.80;99.90
55036;DHT22;40936;53.008;6.556;2022-07-05T10:26:25;23.10;99.90
55036;DHT22;40936;53.008;6.556;2022-07-05T10:28:54;23.70;99.90
55036;DHT22;40936;53.008;6.556;2022-07-05T10:31:20;24.10;99.90
55036;DHT22;40936;53.008;6.556;2022-07-05T10:33:46;24.00;99.90
55036;DHT22;40936;53.008;6.556;2022-07-05T10:36:13;23.80;99.90
55036;DHT22;40936;53.008;6.556;2022-07-05T10:38:43;23.70;99.90
55036;DHT22;40936;53.008;6.556;2022-07-05T10:41:14;24.00;99.90
55036;DHT22;40936;53.008;6.556;2022-07-05T10:43:40;25.30;99.90
55036;DHT22;40936;53.008;6.556;2022-07-05T10:46:05;26.70;99.90
55036;DHT22;40936;53.008;6.556;2022-07-05T10:48:34;28.10;99.90
55036;DHT22;40936;53.008;6.556;2022-07-05T10:51:13;29.10;99.90
55036;DHT22;40936;53.008;6.556;2022-07-05T10:58:37;27.10;99.90
55036;DHT22;40936;53.008;6.556;2022-07-05T11:03:48;26.90;99.90
55036;DHT22;40936;53.008;6.556;2022-07-05T11:06:21;27.90;99.90
55036;DHT22;40936;53.008;6.556;2022-07-05T11:13:58;29.50;99.90
55036;DHT22;40936;53.008;6.556;2022-07-05T11:19:12;27.60;99.90
55036;DHT22;40936;53.008;6.556;2022-07-05T11:22:00;27.00;99.90
55036;DHT22;40936;53.008;6.556;2022-07-05T11:24:28;28.40;99.90
55036;DHT22;40936;53.008;6.556;2022-07-05T11:26:58;29.00;99.90
55036;DHT22;40936;53.008;6.556;2022-07-05T11:32:18;28.30;99.90
55036;DHT22;40936;53.008;6.556;2022-07-05T11:34:47;28.40;99.90
55036;DHT22;40936;53.008;6.556;2022-07-05T11:37:23;27.60;99.90
55036;DHT22;40936;53.008;6.556;2022-07-05T11:42:36;26.60;99.90
55036;DHT22;40936;53.008;6.556;2022-07-05T11:45:08;26.20;99.90
55036;DHT22;40936;53.008;6.556;2022-07-05T11:47:34;26.60;99.90
55036;DHT22;40936;53.008;6.556;2022-07-05T11:50:00;27.40;99.90
55036;DHT22;40936;53.008;6.556;2022-07-05T11:52:32;28.30;99.90
55036;DHT22;40936;53.008;6.556;2022-07-05T11:55:00;28.70;99.90
55036;DHT22;40936;53.008;6.556;2022-07-05T11:57:25;28.20;99.90
55036;DHT22;40936;53.008;6.556;2022-07-05T11:59:51;27.90;99.90
55036;DHT22;40936;53.008;6.556;2022-07-05T12:02:17;28.50;99.90
55036;DHT22;40936;53.008;6.556;2022-07-05T12:04:54;29.50;99.90
55036;DHT22;40936;53.008;6.556;2022-07-05T12:07:32;30.00;99.90
55036;DHT22;40936;53.008;6.556;2022-07-05T12:09:58;30.10;99.90
55036;DHT22;40936;53.008;6.556;2022-07-05T12:12:43;29.90;99.90
55036;DHT22;40936;53.008;6.556;2022-07-05T12:15:20;30.10;99.90
55036;DHT22;40936;53.008;6.556;2022-07-05T12:17:50;30.20;99.90
55036;DHT22;40936;53.008;6.556;2022-07-05T12:20:24;31.10;99.90
55036;DHT22;40936;53.008;6.556;2022-07-05T12:22:51;31.60;99.90
55036;DHT22;40936;53.008;6.556;2022-07-05T12:25:19;31.50;99.90
55036;DHT22;40936;53.008;6.556;2022-07-05T12:27:46;31.70;99.90
55036;DHT22;40936;53.008;6.556;2022-07-05T12:30:16;31.90;99.90
55036;DHT22;40936;53.008;6.556;2022-07-05T12:33:03;31.20;99.90
55036;DHT22;40936;53.008;6.556;2022-07-05T12:35:43;30.10;99.90
55036;DHT22;40936;53.008;6.556;2022-07-05T12:38:12;29.40;99.90
55036;DHT22;40936;53.008;6.556;2022-07-05T12:40:40;29.20;99.90
55036;DHT22;40936;53.008;6.556;2022-07-05T12:45:34;27.80;99.90
55036;DHT22;40936;53.008;6.556;2022-07-05T12:48:02;26.90;99.90
55036;DHT22;40936;53.008;6.556;2022-07-05T12:50:43;26.20;99.90
55036;DHT22;40936;53.008;6.556;2022-07-05T12:53:12;25.80;99.90
55036;DHT22;40936;53.008;6.556;2022-07-05T12:56:08;25.50;99.90
55036;DHT22;40936;53.008;6.556;2022-07-05T12:58:56;25.20;99.90
55036;DHT22;40936;53.008;6.556;2022-07-05T13:04:07;24.60;99.90
55036;DHT22;40936;53.008;6.556;2022-07-05T13:06:53;24.40;99.90
55036;DHT22;40936;53.008;6.556;2022-07-05T13:09:34;24.40;99.90
55036;DHT22;40936;53.008;6.556;2022-07-05T13:14:43;24.20;99.90
55036;DHT22;40936;53.008;6.556;2022-07-05T13:17:10;24.20;99.90
55036;DHT22;40936;53.008;6.556;2022-07-05T13:19:36;24.10;99.90
55036;DHT22;40936;53.008;6.556;2022-07-05T13:22:03;24.10;99.90
55036;DHT22;40936;53.008;6.556;2022-07-05T13:24:29;24.10;99.90
55036;DHT22;40936;53.008;6.556;2022-07-05T13:26:56;24.10;99.90
55036;DHT22;40936;53.008;6.556;2022-07-05T13:29:21;24.00;99.90
55036;DHT22;40936;53.008;6.556;2022-07-05T13:31:47;23.90;99.90
55036;DHT22;40936;53.008;6.556;2022-07-05T13:34:13;23.80;99.90
55036;DHT22;40936;53.008;6.556;2022-07-05T13:36:38;23.70;99.90
55036;DHT22;40936;53.008;6.556;2022-07-05T13:39:04;23.80;99.90
55036;DHT22;40936;53.008;6.556;2022-07-05T13:41:30;23.80;99.90
55036;DHT22;40936;53.008;6.556;2022-07-05T13:43:57;23.80;99.90
55036;DHT22;40936;53.008;6.556;2022-07-05T13:46:23;23.50;99.90
55036;DHT22;40936;53.008;6.556;2022-07-05T13:48:49;23.30;99.90
55036;DHT22;40936;53.008;6.556;2022-07-05T13:51:15;23.10;99.90
55036;DHT22;40936;53.008;6.556;2022-07-05T13:53:41;23.20;99.90
55036;DHT22;40936;53.008;6.556;2022-07-05T13:56:07;23.20;99.90
55036;DHT22;40936;53.008;6.556;2022-07-05T13:58:33;23.10;99.90
55036;DHT22;40936;53.008;6.556;2022-07-05T14:01:00;23.00;99.90
55036;DHT22;40936;53.008;6.556;2022-07-05T14:03:26;22.80;99.90
55036;DHT22;40936;53.008;6.556;2022-07-05T14:05:51;22.70;99.90
55036;DHT22;40936;53.008;6.556;2022-07-05T14:08:17;22.60;99.90
55036;DHT22;40936;53.008;6.556;2022-07-05T14:10:50;22.50;99.90
55036;DHT22;40936;53.008;6.556;2022-07-05T14:13:20;22.40;99.90
55036;DHT22;40936;53.008;6.556;2022-07-05T14:15:47;22.40;99.90
55036;DHT22;40936;53.008;6.556;2022-07-05T14:18:14;22.40;99.90
55036;DHT22;40936;53.008;6.556;2022-07-05T14:20:42;22.60;99.90
55036;DHT22;40936;53.008;6.556;2022-07-05T14:23:08;22.80;99.90
55036;DHT22;40936;53.008;6.556;2022-07-05T14:25:35;22.90;99.90
55036;DHT22;40936;53.008;6.556;2022-07-05T14:28:00;22.70;99.90
55036;DHT22;40936;53.008;6.556;2022-07-05T14:30:28;22.50;99.90
55036;DHT22;40936;53.008;6.556;2022-07-05T14:32:56;22.20;99.90
55036;DHT22;40936;53.008;6.556;2022-07-05T14:35:22;22.00;99.90
55036;DHT22;40936;53.008;6.556;2022-07-05T14:37:49;21.90;99.90
55036;DHT22;40936;53.008;6.556;2022-07-05T14:40:15;21.90;99.90
55036;DHT22;40936;53.008;6.556;2022-07-05T14:42:40;21.80;99.90
55036;DHT22;40936;53.008;6.556;2022-07-05T14:45:06;21.90;99.90
55036;DHT22;40936;53.008;6.556;2022-07-05T14:47:32;22.10;99.90
55036;DHT22;40936;53.008;6.556;2022-07-05T14:49:58;22.20;99.90
55036;DHT22;40936;53.008;6.556;2022-07-05T14:52:23;22.30;99.90
55036;DHT22;40936;53.008;6.556;2022-07-05T14:54:49;22.40;99.90
55036;DHT22;40936;53.008;6.556;2022-07-05T14:57:15;22.70;99.90
55036;DHT22;40936;53.008;6.556;2022-07-05T14:59:41;22.70;99.90
55036;DHT22;40936;53.008;6.556;2022-07-05T15:02:07;22.90;99.90
55036;DHT22;40936;53.008;6.556;2022-07-05T15:04:35;23.00;99.90
55036;DHT22;40936;53.008;6.556;2022-07-05T15:07:00;23.20;99.90
55036;DHT22;40936;53.008;6.556;2022-07-05T15:09:26;23.40;99.90
55036;DHT22;40936;53.008;6.556;2022-07-05T15:11:51;23.50;99.90
55036;DHT22;40936;53.008;6.556;2022-07-05T15:14:17;24.10;99.90
55036;DHT22;40936;53.008;6.556;2022-07-05T15:16:43;24.70;99.90
55036;DHT22;40936;53.008;6.556;2022-07-05T15:19:09;25.20;99.90
55036;DHT22;40936;53.008;6.556;2022-07-05T15:21:34;25.10;99.90
55036;DHT22;40936;53.008;6.556;2022-07-05T15:24:00;24.50;99.90
55036;DHT22;40936;53.008;6.556;2022-07-05T15:26:27;23.80;99.90
55036;DHT22;40936;53.008;6.556;2022-07-05T15:29:04;23.40;99.90
55036;DHT22;40936;53.008;6.556;2022-07-05T15:31:31;23.10;99.90
55036;DHT22;40936;53.008;6.556;2022-07-05T15:33:57;23.10;99.90
55036;DHT22;40936;53.008;6.556;2022-07-05T15:36:24;22.80;99.90
55036;DHT22;40936;53.008;6.556;2022-07-05T15:38:51;22.60;99.90
55036;DHT22;40936;53.008;6.556;2022-07-05T15:41:17;22.50;99.90
55036;DHT22;40936;53.008;6.556;2022-07-05T15:43:43;22.40;99.90
55036;DHT22;40936;53.008;6.556;2022-07-05T15:46:09;22.50;99.90
55036;DHT22;40936;53.008;6.556;2022-07-05T15:48:36;22.60;99.90
55036;DHT22;40936;53.008;6.556;2022-07-05T15:51:02;22.80;99.90
55036;DHT22;40936;53.008;6.556;2022-07-05T15:53:30;23.00;99.90
55036;DHT22;40936;53.008;6.556;2022-07-05T15:55:57;22.80;99.90
55036;DHT22;40936;53.008;6.556;2022-07-05T15:58:34;22.60;99.90
55036;DHT22;40936;53.008;6.556;2022-07-05T16:01:00;22.60;99.90
55036;DHT22;40936;53.008;6.556;2022-07-05T16:03:27;22.70;99.90
55036;DHT22;40936;53.008;6.556;2022-07-05T16:05:53;22.60;99.90
55036;DHT22;40936;53.008;6.556;2022-07-05T16:08:22;22.60;99.90